sensor_id;sensor_type;location;lat;lon;timestamp;pressure;altitude;pressure_sealevel;temperature;humidity
80648;BME280;70012;0.000;0.000;2023-05-07T15:46:48;100755.97;;;20.99;58.31
80648;BME280;70012;0.000;0.000;2023-05-07T15:52:25;100754.41;;;22.06;55.43
80648;BME280;70012;0.000;0.000;2023-05-07T15:54:50;100768.19;;;22.12;56.14
80648;BME280;70012;0.000;0.000;2023-05-07T15:57:15;100769.66;;;22.09;53.80
80648;BME280;70012;0.000;0.000;2023-05-07T15:59:41;100778.84;;;22.10;54.11
80648;BME280;70012;0.000;0.000;2023-05-07T16:02:06;100786.38;;;22.09;53.82
80648;BME280;70012;0.000;0.000;2023-05-07T16:04:32;100779.34;;;22.12;53.66
80648;BME280;70012;0.000;0.000;2023-05-07T16:06:58;100779.34;;;22.12;53.46
80648;BME280;70012;0.000;0.000;2023-05-07T16:09:23;100780.34;;;22.16;54.07
80648;BME280;70012;0.000;0.000;2023-05-07T16:11:50;100782.00;;;22.17;53.93
80648;BME280;70012;0.000;0.000;2023-05-07T16:14:15;100781.50;;;22.15;54.28
80648;BME280;70012;0.000;0.000;2023-05-07T16:16:41;100784.78;;;22.17;54.14
80648;BME280;70012;0.000;0.000;2023-05-07T16:19:06;100787.00;;;22.37;53.98
80648;BME280;70012;0.000;0.000;2023-05-07T16:21:31;100785.47;;;22.31;54.48
80648;BME280;70012;0.000;0.000;2023-05-07T16:23:57;100799.28;;;22.28;55.78
80648;BME280;70012;0.000;0.000;2023-05-07T16:26:23;100779.41;;;22.29;55.28
80648;BME280;70012;0.000;0.000;2023-05-07T16:28:49;100781.88;;;22.31;54.47
80648;BME280;70012;0.000;0.000;2023-05-07T16:31:16;100790.75;;;22.33;54.62
80648;BME280;70012;0.000;0.000;2023-05-07T16:33:41;100789.91;;;22.32;54.89
80648;BME280;70012;0.000;0.000;2023-05-07T16:36:06;100789.91;;;22.32;54.63
80648;BME280;70012;0.000;0.000;2023-05-07T16:38:32;100789.09;;;22.32;54.71
80648;BME280;70012;0.000;0.000;2023-05-07T16:40:59;100789.91;;;22.32;54.74
80648;BME280;70012;0.000;0.000;2023-05-07T16:43:26;100795.50;;;22.32;54.62
80648;BME280;70012;0.000;0.000;2023-05-07T16:45:52;100794.69;;;22.32;54.67
80648;BME280;70012;0.000;0.000;2023-05-07T16:48:17;100801.06;;;22.32;54.82
80648;BME280;70012;0.000;0.000;2023-05-07T16:50:43;100787.13;;;22.32;54.73
80648;BME280;70012;0.000;0.000;2023-05-07T16:53:09;100796.16;;;22.29;54.96
80648;BME280;70012;0.000;0.000;2023-05-07T16:55:39;100799.09;;;22.24;54.71
80648;BME280;70012;0.000;0.000;2023-05-07T16:58:06;100803.81;;;22.23;55.39
80648;BME280;70012;0.000;0.000;2023-05-07T17:00:32;100812.00;;;22.20;57.25
80648;BME280;70012;0.000;0.000;2023-05-07T17:02:57;100815.47;;;22.17;59.96
80648;BME280;70012;0.000;0.000;2023-05-07T17:05:22;100811.75;;;21.99;58.63
80648;BME280;70012;0.000;0.000;2023-05-07T17:07:47;100812.09;;;21.74;57.86
80648;BME280;70012;0.000;0.000;2023-05-07T17:10:13;100808.53;;;21.37;57.78
80648;BME280;70012;0.000;0.000;2023-05-07T17:12:38;100802.50;;;21.21;58.71
80648;BME280;70012;0.000;0.000;2023-05-07T17:15:04;100813.75;;;21.16;58.96
80648;BME280;70012;0.000;0.000;2023-05-07T17:17:31;100802.03;;;21.05;58.92
80648;BME280;70012;0.000;0.000;2023-05-07T17:19:56;100801.66;;;20.84;59.50
80648;BME280;70012;0.000;0.000;2023-05-07T17:22:22;100800.63;;;20.66;59.28
80648;BME280;70012;0.000;0.000;2023-05-07T17:24:49;100805.09;;;20.53;59.89
80648;BME280;70012;0.000;0.000;2023-05-07T17:27:14;100809.69;;;20.58;60.22
80648;BME280;70012;0.000;0.000;2023-05-07T17:29:40;100807.97;;;20.62;60.63
80648;BME280;70012;0.000;0.000;2023-05-07T17:32:05;100819.91;;;20.62;60.95
80648;BME280;70012;0.000;0.000;2023-05-07T17:34:30;100820.94;;;20.53;61.45
80648;BME280;70012;0.000;0.000;2023-05-07T17:36:56;100816.41;;;20.43;61.58
80648;BME280;70012;0.000;0.000;2023-05-07T17:39:22;100816.59;;;20.46;61.76
80648;BME280;70012;0.000;0.000;2023-05-07T17:41:48;100829.19;;;20.30;61.93
80648;BME280;70012;0.000;0.000;2023-05-07T17:44:13;100823.00;;;20.19;62.67
80648;BME280;70012;0.000;0.000;2023-05-07T17:46:38;100823.94;;;20.84;60.92
80648;BME280;70012;0.000;0.000;2023-05-07T17:49:04;100830.53;;;20.74;60.75
80648;BME280;70012;0.000;0.000;2023-05-07T17:51:32;100838.66;;;20.85;60.67
80648;BME280;70012;0.000;0.000;2023-05-07T17:53:58;100843.16;;;20.94;60.45
80648;BME280;70012;0.000;0.000;2023-05-07T17:56:23;100838.84;;;21.02;59.68
80648;BME280;70012;0.000;0.000;2023-05-07T17:58:49;100852.03;;;21.10;59.50
80648;BME280;70012;0.000;0.000;2023-05-07T18:01:15;100846.84;;;21.18;59.50
80648;BME280;70012;0.000;0.000;2023-05-07T18:03:40;100859.00;;;21.22;59.27
80648;BME280;70012;0.000;0.000;2023-05-07T18:06:06;100854.44;;;21.26;58.92
80648;BME280;70012;0.000;0.000;2023-05-07T18:08:31;100855.50;;;21.30;58.94
80648;BME280;70012;0.000;0.000;2023-05-07T18:10:57;100856.31;;;21.31;58.57
80648;BME280;70012;0.000;0.000;2023-05-07T18:13:22;100860.41;;;21.33;58.35
80648;BME280;70012;0.000;0.000;2023-05-07T18:15:48;100863.72;;;21.35;58.38
80648;BME280;70012;0.000;0.000;2023-05-07T18:18:14;100868.16;;;21.36;57.99
80648;BME280;70012;0.000;0.000;2023-05-07T18:20:39;100870.94;;;21.36;57.91
80648;BME280;70012;0.000;0.000;2023-05-07T18:23:05;100873.09;;;21.39;57.93
80648;BME280;70012;0.000;0.000;2023-05-07T18:25:31;100881.44;;;21.39;57.97
80648;BME280;70012;0.000;0.000;2023-05-07T18:27:56;100881.44;;;21.39;57.55
80648;BME280;70012;0.000;0.000;2023-05-07T18:30:22;100881.44;;;21.39;57.60
80648;BME280;70012;0.000;0.000;2023-05-07T18:32:47;100885.88;;;21.40;57.58
80648;BME280;70012;0.000;0.000;2023-05-07T18:35:13;100891.44;;;21.40;57.67
80648;BME280;70012;0.000;0.000;2023-05-07T18:37:38;100892.56;;;21.39;57.64
80648;BME280;70012;0.000;0.000;2023-05-07T18:40:04;100894.22;;;21.40;57.65
80648;BME280;70012;0.000;0.000;2023-05-07T18:42:30;100900.31;;;21.42;57.24
80648;BME280;70012;0.000;0.000;2023-05-07T18:44:56;100903.59;;;21.44;57.33
80648;BME280;70012;0.000;0.000;2023-05-07T18:47:22;100906.38;;;21.44;57.10
80648;BME280;70012;0.000;0.000;2023-05-07T18:49:47;100909.16;;;21.44;57.11
80648;BME280;70012;0.000;0.000;2023-05-07T18:52:14;100907.22;;;21.45;57.03
80648;BME280;70012;0.000;0.000;2023-05-07T18:54:45;100915.25;;;21.47;57.00
80648;BME280;70012;0.000;0.000;2023-05-07T18:57:10;100910.81;;;21.46;57.05
80648;BME280;70012;0.000;0.000;2023-05-07T18:59:44;100910.81;;;21.46;56.92
80648;BME280;70012;0.000;0.000;2023-05-07T19:02:10;100912.78;;;21.45;56.63
80648;BME280;70012;0.000;0.000;2023-05-07T19:04:39;100911.13;;;21.44;56.88
80648;BME280;70012;0.000;0.000;2023-05-07T19:07:04;100913.59;;;21.46;56.81
80648;BME280;70012;0.000;0.000;2023-05-07T19:09:30;100919.16;;;21.46;56.71
80648;BME280;70012;0.000;0.000;2023-05-07T19:11:57;100924.75;;;21.46;56.55
80648;BME280;70012;0.000;0.000;2023-05-07T19:14:23;100926.38;;;21.47;56.38
80648;BME280;70012;0.000;0.000;2023-05-07T19:16:48;100933.63;;;21.48;56.52
80648;BME280;70012;0.000;0.000;2023-05-07T19:19:13;100929.69;;;21.49;56.36
80648;BME280;70012;0.000;0.000;2023-05-07T19:21:38;100935.78;;;21.51;56.49
80648;BME280;70012;0.000;0.000;2023-05-07T19:24:04;100940.19;;;21.52;55.91
80648;BME280;70012;0.000;0.000;2023-05-07T19:26:30;100950.31;;;21.48;55.97
80648;BME280;70012;0.000;0.000;2023-05-07T19:28:55;100958.34;;;21.49;55.83
80648;BME280;70012;0.000;0.000;2023-05-07T19:31:22;100961.47;;;21.48;56.36
80648;BME280;70012;0.000;0.000;2023-05-07T19:33:48;100966.22;;;21.47;55.72
80648;BME280;70012;0.000;0.000;2023-05-07T19:36:13;100969.81;;;21.48;55.86
80648;BME280;70012;0.000;0.000;2023-05-07T19:38:40;100967.84;;;21.48;55.65
80648;BME280;70012;0.000;0.000;2023-05-07T19:41:07;100975.41;;;21.48;55.84
80648;BME280;70012;0.000;0.000;2023-05-07T19:43:33;100978.19;;;21.48;55.46
80648;BME280;70012;0.000;0.000;2023-05-07T19:46:03;100984.56;;;21.48;55.90
80648;BME280;70012;0.000;0.000;2023-05-07T19:48:29;100983.75;;;21.48;55.43
80648;BME280;70012;0.000;0.000;2023-05-07T19:50:54;100986.53;;;21.48;55.58
80648;BME280;70012;0.000;0.000;2023-05-07T19:53:19;100988.50;;;21.47;55.77
80648;BME280;70012;0.000;0.000;2023-05-07T19:55:46;100988.78;;;21.46;55.75
80648;BME280;70012;0.000;0.000;2023-05-07T19:58:11;100987.66;;;21.47;55.65
80648;BME280;70012;0.000;0.000;2023-05-07T20:00:37;100978.50;;;21.46;55.42
80648;BME280;70012;0.000;0.000;2023-05-07T20:03:02;100983.75;;;21.48;55.71
80648;BME280;70012;0.000;0.000;2023-05-07T20:05:27;100982.09;;;21.47;55.28
80648;BME280;70012;0.000;0.000;2023-05-07T20:07:53;100988.50;;;21.47;55.15
80648;BME280;70012;0.000;0.000;2023-05-07T20:10:19;100985.41;;;21.49;55.15
80648;BME280;70012;0.000;0.000;2023-05-07T20:12:44;100992.09;;;21.48;54.97
80648;BME280;70012;0.000;0.000;2023-05-07T20:15:10;100990.97;;;21.49;55.06
80648;BME280;70012;0.000;0.000;2023-05-07T20:17:35;100994.88;;;21.48;55.44
80648;BME280;70012;0.000;0.000;2023-05-07T20:20:02;100996.53;;;21.49;55.21
80648;BME280;70012;0.000;0.000;2023-05-07T20:22:32;101000.47;;;21.48;54.89
80648;BME280;70012;0.000;0.000;2023-05-07T20:24:57;100997.16;;;21.46;54.76
80648;BME280;70012;0.000;0.000;2023-05-07T20:27:22;101007.69;;;21.49;55.08
80648;BME280;70012;0.000;0.000;2023-05-07T20:29:49;101006.03;;;21.48;54.90
80648;BME280;70012;0.000;0.000;2023-05-07T20:32:16;101006.03;;;21.48;55.16
80648;BME280;70012;0.000;0.000;2023-05-07T20:34:45;101003.25;;;21.48;54.87
80648;BME280;70012;0.000;0.000;2023-05-07T20:37:12;101006.03;;;21.48;55.29
80648;BME280;70012;0.000;0.000;2023-05-07T20:39:39;100997.16;;;21.46;55.01
80648;BME280;70012;0.000;0.000;2023-05-07T20:42:05;100995.41;;;21.50;55.13
80648;BME280;70012;0.000;0.000;2023-05-07T20:44:32;101002.13;;;21.49;54.86
80648;BME280;70012;0.000;0.000;2023-05-07T20:46:58;101000.47;;;21.48;55.29
80648;BME280;70012;0.000;0.000;2023-05-07T20:49:23;101004.38;;;21.47;54.99
80648;BME280;70012;0.000;0.000;2023-05-07T20:51:48;101004.38;;;21.47;54.99
80648;BME280;70012;0.000;0.000;2023-05-07T20:54:14;101013.25;;;21.49;54.67
80648;BME280;70012;0.000;0.000;2023-05-07T20:56:39;101003.25;;;21.48;54.89
80648;BME280;70012;0.000;0.000;2023-05-07T20:59:04;101002.72;;;21.46;55.09
80648;BME280;70012;0.000;0.000;2023-05-07T21:01:30;101007.69;;;21.49;54.71
80648;BME280;70012;0.000;0.000;2023-05-07T21:03:56;101000.47;;;21.48;54.71
80648;BME280;70012;0.000;0.000;2023-05-07T21:06:21;101006.84;;;21.48;54.78
80648;BME280;70012;0.000;0.000;2023-05-07T21:08:47;101011.59;;;21.48;54.81
80648;BME280;70012;0.000;0.000;2023-05-07T21:11:12;101010.47;;;21.49;54.83
80648;BME280;70012;0.000;0.000;2023-05-07T21:13:37;101012.22;;;21.44;54.87
80648;BME280;70012;0.000;0.000;2023-05-07T21:16:03;101022.75;;;21.48;54.78
80648;BME280;70012;0.000;0.000;2023-05-07T21:18:28;101024.41;;;21.49;54.39
80648;BME280;70012;0.000;0.000;2023-05-07T21:22:24;101021.28;;;21.50;54.41
80648;BME280;70012;0.000;0.000;2023-05-07T21:24:50;101019.63;;;21.49;54.52
80648;BME280;70012;0.000;0.000;2023-05-07T21:27:16;101016.38;;;21.47;54.37
80648;BME280;70012;0.000;0.000;2023-05-07T21:29:41;101014.91;;;21.50;54.53
80648;BME280;70012;0.000;0.000;2023-05-07T21:32:06;101015.53;;;21.47;54.69
80648;BME280;70012;0.000;0.000;2023-05-07T21:34:32;101016.38;;;21.47;54.41
80648;BME280;70012;0.000;0.000;2023-05-07T21:36:57;101006.63;;;21.44;54.44
80648;BME280;70012;0.000;0.000;2023-05-07T21:39:22;101007.69;;;21.49;54.28
80648;BME280;70012;0.000;0.000;2023-05-07T21:41:48;101007.69;;;21.49;54.13
80648;BME280;70012;0.000;0.000;2023-05-07T21:44:14;100999.66;;;21.47;54.35
